sensor_id;sensor_type;location;lat;lon;timestamp;P1;durP1;ratioP1;P2;durP2;ratioP2
15938;SDS011;8068;51.322;9.450;2022-09-09T00:00:38;2.30;;;1.67;;
15938;SDS011;8068;51.322;9.450;2022-09-09T00:03:22;6.90;;;1.50;;
15938;SDS011;8068;51.322;9.450;2022-09-09T00:05:55;3.20;;;2.00;;
15938;SDS011;8068;51.322;9.450;2022-09-09T00:08:32;2.30;;;1.67;;
15938;SDS011;8068;51.322;9.450;2022-09-09T00:11:08;2.57;;;1.77;;
15938;SDS011;8068;51.322;9.450;2022-09-09T00:14:10;3.33;;;1.43;;
15938;SDS011;8068;51.322;9.450;2022-09-09T00:16:30;4.43;;;1.90;;
15938;SDS011;8068;51.322;9.450;2022-09-09T00:19:10;3.30;;;2.30;;
15938;SDS011;8068;51.322;9.450;2022-09-09T00:21:42;2.63;;;1.43;;
15938;SDS011;8068;51.322;9.450;2022-09-09T00:24:45;3.40;;;1.30;;
15938;SDS011;8068;51.322;9.450;2022-09-09T00:30:03;4.80;;;1.70;;
15938;SDS011;8068;51.322;9.450;2022-09-09T00:32:30;3.70;;;1.90;;
15938;SDS011;8068;51.322;9.450;2022-09-09T00:37:44;2.23;;;1.57;;
15938;SDS011;8068;51.322;9.450;2022-09-09T00:40:27;5.27;;;2.30;;
15938;SDS011;8068;51.322;9.450;2022-09-09T00:45:52;7.00;;;1.70;;
15938;SDS011;8068;51.322;9.450;2022-09-09T00:48:23;3.50;;;2.10;;
15938;SDS011;8068;51.322;9.450;2022-09-09T00:51:01;4.13;;;1.70;;
15938;SDS011;8068;51.322;9.450;2022-09-09T00:56:41;3.93;;;1.93;;
15938;SDS011;8068;51.322;9.450;2022-09-09T01:01:53;7.53;;;2.10;;
15938;SDS011;8068;51.322;9.450;2022-09-09T01:04:23;2.23;;;1.67;;
15938;SDS011;8068;51.322;9.450;2022-09-09T01:07:02;4.17;;;1.83;;
15938;SDS011;8068;51.322;9.450;2022-09-09T01:09:42;5.07;;;1.73;;
15938;SDS011;8068;51.322;9.450;2022-09-09T01:12:17;4.43;;;1.83;;
15938;SDS011;8068;51.322;9.450;2022-09-09T01:20:31;2.93;;;1.50;;
15938;SDS011;8068;51.322;9.450;2022-09-09T01:26:18;2.80;;;1.80;;
15938;SDS011;8068;51.322;9.450;2022-09-09T01:28:48;7.20;;;2.00;;
15938;SDS011;8068;51.322;9.450;2022-09-09T01:31:20;4.90;;;1.97;;
15938;SDS011;8068;51.322;9.450;2022-09-09T01:33:48;6.60;;;1.97;;
15938;SDS011;8068;51.322;9.450;2022-09-09T01:36:20;3.20;;;1.70;;
15938;SDS011;8068;51.322;9.450;2022-09-09T01:38:52;6.30;;;1.87;;
15938;SDS011;8068;51.322;9.450;2022-09-09T01:41:19;2.20;;;2.00;;
15938;SDS011;8068;51.322;9.450;2022-09-09T01:43:45;9.53;;;1.60;;
15938;SDS011;8068;51.322;9.450;2022-09-09T01:46:11;4.77;;;1.70;;
15938;SDS011;8068;51.322;9.450;2022-09-09T01:48:37;2.83;;;1.77;;
15938;SDS011;8068;51.322;9.450;2022-09-09T01:51:04;7.13;;;1.70;;
15938;SDS011;8068;51.322;9.450;2022-09-09T01:53:30;4.17;;;1.83;;
15938;SDS011;8068;51.322;9.450;2022-09-09T01:56:08;4.40;;;2.00;;
15938;SDS011;8068;51.322;9.450;2022-09-09T01:59:00;9.63;;;2.03;;
15938;SDS011;8068;51.322;9.450;2022-09-09T02:07:06;5.43;;;2.10;;
15938;SDS011;8068;51.322;9.450;2022-09-09T02:09:40;2.40;;;1.37;;
15938;SDS011;8068;51.322;9.450;2022-09-09T02:12:09;4.67;;;1.80;;
15938;SDS011;8068;51.322;9.450;2022-09-09T02:14:40;4.10;;;2.00;;
15938;SDS011;8068;51.322;9.450;2022-09-09T02:17:09;3.70;;;1.50;;
15938;SDS011;8068;51.322;9.450;2022-09-09T02:19:40;5.93;;;1.90;;
15938;SDS011;8068;51.322;9.450;2022-09-09T02:22:11;2.00;;;1.70;;
15938;SDS011;8068;51.322;9.450;2022-09-09T02:24:39;4.67;;;1.77;;
15938;SDS011;8068;51.322;9.450;2022-09-09T02:27:06;3.43;;;2.00;;
15938;SDS011;8068;51.322;9.450;2022-09-09T02:29:35;8.80;;;2.17;;
15938;SDS011;8068;51.322;9.450;2022-09-09T02:32:04;5.03;;;1.40;;
15938;SDS011;8068;51.322;9.450;2022-09-09T02:34:33;5.83;;;1.90;;
15938;SDS011;8068;51.322;9.450;2022-09-09T02:37:01;5.33;;;1.40;;
15938;SDS011;8068;51.322;9.450;2022-09-09T02:39:28;6.50;;;1.83;;
15938;SDS011;8068;51.322;9.450;2022-09-09T02:41:55;6.37;;;1.40;;
15938;SDS011;8068;51.322;9.450;2022-09-09T02:44:21;3.13;;;1.53;;
15938;SDS011;8068;51.322;9.450;2022-09-09T02:47:09;7.20;;;2.07;;
15938;SDS011;8068;51.322;9.450;2022-09-09T02:55:28;9.83;;;1.67;;
15938;SDS011;8068;51.322;9.450;2022-09-09T02:57:55;6.27;;;1.67;;
15938;SDS011;8068;51.322;9.450;2022-09-09T03:00:23;4.20;;;1.73;;
15938;SDS011;8068;51.322;9.450;2022-09-09T03:02:50;6.87;;;1.50;;
15938;SDS011;8068;51.322;9.450;2022-09-09T03:05:16;4.27;;;2.17;;
15938;SDS011;8068;51.322;9.450;2022-09-09T03:07:42;3.30;;;1.60;;
15938;SDS011;8068;51.322;9.450;2022-09-09T03:10:08;4.37;;;1.77;;
15938;SDS011;8068;51.322;9.450;2022-09-09T03:12:36;4.40;;;2.17;;
15938;SDS011;8068;51.322;9.450;2022-09-09T03:15:01;2.60;;;1.90;;
15938;SDS011;8068;51.322;9.450;2022-09-09T03:17:27;2.07;;;1.60;;
15938;SDS011;8068;51.322;9.450;2022-09-09T03:19:53;4.00;;;1.47;;
15938;SDS011;8068;51.322;9.450;2022-09-09T03:22:20;3.70;;;1.53;;
15938;SDS011;8068;51.322;9.450;2022-09-09T03:24:46;4.50;;;1.77;;
15938;SDS011;8068;51.322;9.450;2022-09-09T03:27:12;2.70;;;1.10;;
15938;SDS011;8068;51.322;9.450;2022-09-09T03:29:39;6.60;;;1.40;;
15938;SDS011;8068;51.322;9.450;2022-09-09T03:32:05;2.43;;;1.43;;
15938;SDS011;8068;51.322;9.450;2022-09-09T03:34:31;2.83;;;1.50;;
15938;SDS011;8068;51.322;9.450;2022-09-09T03:36:57;3.77;;;1.63;;
15938;SDS011;8068;51.322;9.450;2022-09-09T03:39:23;4.80;;;1.63;;
15938;SDS011;8068;51.322;9.450;2022-09-09T03:41:49;5.03;;;1.40;;
15938;SDS011;8068;51.322;9.450;2022-09-09T03:44:15;5.53;;;1.40;;
15938;SDS011;8068;51.322;9.450;2022-09-09T03:46:41;5.83;;;1.60;;
15938;SDS011;8068;51.322;9.450;2022-09-09T03:49:06;4.53;;;1.40;;
15938;SDS011;8068;51.322;9.450;2022-09-09T03:51:33;5.17;;;1.50;;
15938;SDS011;8068;51.322;9.450;2022-09-09T03:54:02;2.37;;;1.20;;
15938;SDS011;8068;51.322;9.450;2022-09-09T03:56:30;5.13;;;2.10;;
15938;SDS011;8068;51.322;9.450;2022-09-09T03:58:57;2.93;;;1.20;;
15938;SDS011;8068;51.322;9.450;2022-09-09T04:01:23;3.33;;;1.43;;
15938;SDS011;8068;51.322;9.450;2022-09-09T04:03:49;5.60;;;1.27;;
15938;SDS011;8068;51.322;9.450;2022-09-09T04:06:15;2.53;;;1.33;;
15938;SDS011;8068;51.322;9.450;2022-09-09T04:08:42;2.40;;;1.17;;
15938;SDS011;8068;51.322;9.450;2022-09-09T04:11:09;3.40;;;1.50;;
15938;SDS011;8068;51.322;9.450;2022-09-09T04:13:35;5.47;;;1.40;;
15938;SDS011;8068;51.322;9.450;2022-09-09T04:16:05;3.43;;;1.50;;
15938;SDS011;8068;51.322;9.450;2022-09-09T04:18:32;7.13;;;1.63;;
15938;SDS011;8068;51.322;9.450;2022-09-09T04:20:58;9.43;;;1.70;;
15938;SDS011;8068;51.322;9.450;2022-09-09T04:23:24;3.70;;;1.53;;
15938;SDS011;8068;51.322;9.450;2022-09-09T04:25:51;3.30;;;1.40;;
15938;SDS011;8068;51.322;9.450;2022-09-09T04:28:18;1.90;;;1.30;;
15938;SDS011;8068;51.322;9.450;2022-09-09T04:30:47;1.70;;;1.00;;
15938;SDS011;8068;51.322;9.450;2022-09-09T04:33:13;1.90;;;1.07;;
15938;SDS011;8068;51.322;9.450;2022-09-09T04:35:43;7.10;;;1.53;;
15938;SDS011;8068;51.322;9.450;2022-09-09T04:38:10;2.90;;;1.27;;
15938;SDS011;8068;51.322;9.450;2022-09-09T04:40:36;2.33;;;1.00;;
15938;SDS011;8068;51.322;9.450;2022-09-09T04:43:02;6.87;;;1.70;;
15938;SDS011;8068;51.322;9.450;2022-09-09T04:45:30;2.07;;;1.63;;
15938;SDS011;8068;51.322;9.450;2022-09-09T04:47:56;5.00;;;1.13;;
15938;SDS011;8068;51.322;9.450;2022-09-09T04:50:22;3.60;;;1.30;;
15938;SDS011;8068;51.322;9.450;2022-09-09T04:52:48;1.70;;;0.90;;
15938;SDS011;8068;51.322;9.450;2022-09-09T04:55:14;3.20;;;1.30;;
15938;SDS011;8068;51.322;9.450;2022-09-09T04:57:40;1.60;;;1.27;;
15938;SDS011;8068;51.322;9.450;2022-09-09T05:00:06;2.43;;;1.20;;
15938;SDS011;8068;51.322;9.450;2022-09-09T05:02:32;2.50;;;1.00;;
15938;SDS011;8068;51.322;9.450;2022-09-09T05:04:58;5.30;;;2.03;;
15938;SDS011;8068;51.322;9.450;2022-09-09T05:07:26;4.53;;;3.70;;
15938;SDS011;8068;51.322;9.450;2022-09-09T05:09:52;2.33;;;1.27;;
15938;SDS011;8068;51.322;9.450;2022-09-09T05:12:18;1.60;;;0.90;;
15938;SDS011;8068;51.322;9.450;2022-09-09T05:14:44;3.43;;;1.10;;
15938;SDS011;8068;51.322;9.450;2022-09-09T05:17:10;5.50;;;1.37;;
15938;SDS011;8068;51.322;9.450;2022-09-09T05:19:36;4.07;;;1.20;;
15938;SDS011;8068;51.322;9.450;2022-09-09T05:22:02;4.07;;;1.30;;
15938;SDS011;8068;51.322;9.450;2022-09-09T05:24:28;2.53;;;2.00;;
15938;SDS011;8068;51.322;9.450;2022-09-09T05:26:54;4.87;;;2.57;;
15938;SDS011;8068;51.322;9.450;2022-09-09T05:29:23;2.70;;;1.40;;
15938;SDS011;8068;51.322;9.450;2022-09-09T05:31:49;2.53;;;1.40;;
15938;SDS011;8068;51.322;9.450;2022-09-09T05:34:15;3.50;;;1.27;;
15938;SDS011;8068;51.322;9.450;2022-09-09T05:36:41;2.73;;;1.00;;
15938;SDS011;8068;51.322;9.450;2022-09-09T05:39:07;8.77;;;1.80;;
15938;SDS011;8068;51.322;9.450;2022-09-09T05:41:32;7.00;;;1.50;;
15938;SDS011;8068;51.322;9.450;2022-09-09T05:43:58;2.10;;;1.77;;
15938;SDS011;8068;51.322;9.450;2022-09-09T05:46:26;3.30;;;1.77;;
15938;SDS011;8068;51.322;9.450;2022-09-09T05:48:52;2.43;;;1.03;;
15938;SDS011;8068;51.322;9.450;2022-09-09T05:51:23;1.63;;;0.90;;
15938;SDS011;8068;51.322;9.450;2022-09-09T05:53:50;2.73;;;1.40;;
15938;SDS011;8068;51.322;9.450;2022-09-09T05:56:21;4.30;;;1.57;;
15938;SDS011;8068;51.322;9.450;2022-09-09T05:58:50;3.40;;;1.30;;
15938;SDS011;8068;51.322;9.450;2022-09-09T06:03:45;3.73;;;1.20;;
15938;SDS011;8068;51.322;9.450;2022-09-09T06:06:13;4.03;;;1.50;;
15938;SDS011;8068;51.322;9.450;2022-09-09T06:08:41;2.60;;;1.53;;
15938;SDS011;8068;51.322;9.450;2022-09-09T06:11:10;4.93;;;1.20;;
15938;SDS011;8068;51.322;9.450;2022-09-09T06:13:37;4.40;;;1.47;;
15938;SDS011;8068;51.322;9.450;2022-09-09T06:16:08;3.50;;;1.43;;
15938;SDS011;8068;51.322;9.450;2022-09-09T06:18:37;7.63;;;1.90;;
15938;SDS011;8068;51.322;9.450;2022-09-09T06:21:04;3.33;;;1.57;;
15938;SDS011;8068;51.322;9.450;2022-09-09T06:23:32;3.60;;;1.23;;
15938;SDS011;8068;51.322;9.450;2022-09-09T06:26:06;8.50;;;1.13;;
15938;SDS011;8068;51.322;9.450;2022-09-09T06:28:36;2.53;;;1.27;;
15938;SDS011;8068;51.322;9.450;2022-09-09T06:31:07;2.03;;;1.20;;
15938;SDS011;8068;51.322;9.450;2022-09-09T06:33:34;5.77;;;1.30;;
15938;SDS011;8068;51.322;9.450;2022-09-09T06:36:07;3.47;;;1.60;;
15938;SDS011;8068;51.322;9.450;2022-09-09T06:38:36;3.63;;;1.27;;
15938;SDS011;8068;51.322;9.450;2022-09-09T06:41:03;1.87;;;1.43;;
15938;SDS011;8068;51.322;9.450;2022-09-09T06:43:31;2.90;;;1.50;;
15938;SDS011;8068;51.322;9.450;2022-09-09T06:48:38;5.27;;;1.57;;
15938;SDS011;8068;51.322;9.450;2022-09-09T06:53:37;2.20;;;1.50;;
15938;SDS011;8068;51.322;9.450;2022-09-09T06:58:42;4.10;;;1.30;;
15938;SDS011;8068;51.322;9.450;2022-09-09T07:01:10;11.53;;;1.63;;
15938;SDS011;8068;51.322;9.450;2022-09-09T07:03:41;2.57;;;1.70;;
15938;SDS011;8068;51.322;9.450;2022-09-09T07:06:17;2.53;;;1.33;;
15938;SDS011;8068;51.322;9.450;2022-09-09T07:08:53;5.20;;;1.40;;
15938;SDS011;8068;51.322;9.450;2022-09-09T07:11:23;9.90;;;1.50;;
15938;SDS011;8068;51.322;9.450;2022-09-09T07:13:51;2.30;;;1.20;;
15938;SDS011;8068;51.322;9.450;2022-09-09T07:16:17;11.13;;;1.37;;
15938;SDS011;8068;51.322;9.450;2022-09-09T07:18:44;2.90;;;1.20;;
15938;SDS011;8068;51.322;9.450;2022-09-09T07:21:11;4.77;;;2.00;;
15938;SDS011;8068;51.322;9.450;2022-09-09T07:23:37;3.90;;;1.93;;
15938;SDS011;8068;51.322;9.450;2022-09-09T07:26:11;2.30;;;1.40;;
15938;SDS011;8068;51.322;9.450;2022-09-09T07:28:39;6.00;;;1.80;;
15938;SDS011;8068;51.322;9.450;2022-09-09T07:31:05;3.00;;;1.40;;
15938;SDS011;8068;51.322;9.450;2022-09-09T07:33:32;3.60;;;1.60;;
15938;SDS011;8068;51.322;9.450;2022-09-09T07:36:06;3.73;;;1.50;;
15938;SDS011;8068;51.322;9.450;2022-09-09T07:38:37;2.53;;;1.47;;
15938;SDS011;8068;51.322;9.450;2022-09-09T07:41:09;5.40;;;1.53;;
15938;SDS011;8068;51.322;9.450;2022-09-09T07:43:39;3.20;;;1.20;;
15938;SDS011;8068;51.322;9.450;2022-09-09T07:46:05;3.83;;;1.67;;
15938;SDS011;8068;51.322;9.450;2022-09-09T07:48:32;3.43;;;1.60;;
15938;SDS011;8068;51.322;9.450;2022-09-09T07:51:11;5.70;;;1.73;;
15938;SDS011;8068;51.322;9.450;2022-09-09T07:53:42;3.83;;;1.50;;
15938;SDS011;8068;51.322;9.450;2022-09-09T07:56:09;3.73;;;1.57;;
15938;SDS011;8068;51.322;9.450;2022-09-09T07:58:37;3.47;;;1.60;;
15938;SDS011;8068;51.322;9.450;2022-09-09T08:01:07;1.90;;;1.20;;
15938;SDS011;8068;51.322;9.450;2022-09-09T08:03:34;5.47;;;2.10;;
15938;SDS011;8068;51.322;9.450;2022-09-09T08:06:01;6.57;;;1.90;;
15938;SDS011;8068;51.322;9.450;2022-09-09T08:08:28;3.53;;;2.03;;
15938;SDS011;8068;51.322;9.450;2022-09-09T08:11:00;6.10;;;2.00;;
15938;SDS011;8068;51.322;9.450;2022-09-09T08:13:27;9.53;;;1.47;;
15938;SDS011;8068;51.322;9.450;2022-09-09T08:15:53;3.20;;;1.27;;
15938;SDS011;8068;51.322;9.450;2022-09-09T08:18:22;3.30;;;1.77;;
15938;SDS011;8068;51.322;9.450;2022-09-09T08:20:48;4.60;;;1.40;;
15938;SDS011;8068;51.322;9.450;2022-09-09T08:23:14;4.60;;;1.87;;
15938;SDS011;8068;51.322;9.450;2022-09-09T08:25:40;3.90;;;1.37;;
15938;SDS011;8068;51.322;9.450;2022-09-09T08:28:06;3.00;;;1.40;;
15938;SDS011;8068;51.322;9.450;2022-09-09T08:30:32;5.00;;;1.20;;
15938;SDS011;8068;51.322;9.450;2022-09-09T08:32:58;3.20;;;1.53;;
15938;SDS011;8068;51.322;9.450;2022-09-09T08:35:25;3.67;;;1.40;;
15938;SDS011;8068;51.322;9.450;2022-09-09T08:37:53;3.17;;;1.47;;
15938;SDS011;8068;51.322;9.450;2022-09-09T08:40:22;2.60;;;1.70;;
15938;SDS011;8068;51.322;9.450;2022-09-09T08:42:53;3.50;;;1.43;;
15938;SDS011;8068;51.322;9.450;2022-09-09T08:45:28;8.40;;;2.37;;
15938;SDS011;8068;51.322;9.450;2022-09-09T08:50:35;2.57;;;1.70;;
15938;SDS011;8068;51.322;9.450;2022-09-09T08:53:17;3.27;;;1.50;;
15938;SDS011;8068;51.322;9.450;2022-09-09T08:55:50;1.87;;;1.13;;
15938;SDS011;8068;51.322;9.450;2022-09-09T08:58:17;3.37;;;1.50;;
15938;SDS011;8068;51.322;9.450;2022-09-09T09:03:57;9.90;;;1.83;;
15938;SDS011;8068;51.322;9.450;2022-09-09T09:11:58;3.60;;;1.33;;
15938;SDS011;8068;51.322;9.450;2022-09-09T09:14:29;2.53;;;1.30;;
15938;SDS011;8068;51.322;9.450;2022-09-09T09:17:00;4.33;;;1.33;;
15938;SDS011;8068;51.322;9.450;2022-09-09T09:19:27;3.97;;;1.43;;
15938;SDS011;8068;51.322;9.450;2022-09-09T09:21:56;3.20;;;1.20;;
15938;SDS011;8068;51.322;9.450;2022-09-09T09:30:14;5.10;;;1.43;;
15938;SDS011;8068;51.322;9.450;2022-09-09T09:32:55;4.90;;;1.33;;
15938;SDS011;8068;51.322;9.450;2022-09-09T09:35:24;7.27;;;1.40;;
15938;SDS011;8068;51.322;9.450;2022-09-09T09:37:50;10.00;;;1.30;;
15938;SDS011;8068;51.322;9.450;2022-09-09T09:40:36;4.80;;;1.20;;
15938;SDS011;8068;51.322;9.450;2022-09-09T09:43:02;4.73;;;1.30;;
15938;SDS011;8068;51.322;9.450;2022-09-09T09:48:01;3.37;;;1.30;;
15938;SDS011;8068;51.322;9.450;2022-09-09T09:50:33;4.60;;;1.40;;
15938;SDS011;8068;51.322;9.450;2022-09-09T09:53:03;2.80;;;1.10;;
15938;SDS011;8068;51.322;9.450;2022-09-09T09:55:30;7.00;;;1.63;;
15938;SDS011;8068;51.322;9.450;2022-09-09T09:58:01;3.13;;;1.17;;
15938;SDS011;8068;51.322;9.450;2022-09-09T10:00:33;2.67;;;1.00;;
15938;SDS011;8068;51.322;9.450;2022-09-09T10:03:12;6.67;;;1.33;;
15938;SDS011;8068;51.322;9.450;2022-09-09T10:05:45;5.50;;;1.47;;
15938;SDS011;8068;51.322;9.450;2022-09-09T10:08:12;3.97;;;1.50;;
15938;SDS011;8068;51.322;9.450;2022-09-09T10:24:34;6.03;;;1.10;;
15938;SDS011;8068;51.322;9.450;2022-09-09T10:35:09;7.43;;;0.97;;
15938;SDS011;8068;51.322;9.450;2022-09-09T10:40:22;1.60;;;1.10;;
15938;SDS011;8068;51.322;9.450;2022-09-09T10:51:22;4.60;;;1.07;;
15938;SDS011;8068;51.322;9.450;2022-09-09T10:56:23;6.40;;;2.50;;
15938;SDS011;8068;51.322;9.450;2022-09-09T11:01:51;5.03;;;1.40;;
15938;SDS011;8068;51.322;9.450;2022-09-09T11:06:49;4.80;;;1.40;;
15938;SDS011;8068;51.322;9.450;2022-09-09T11:09:19;5.63;;;2.10;;
15938;SDS011;8068;51.322;9.450;2022-09-09T11:11:55;2.80;;;1.10;;
15938;SDS011;8068;51.322;9.450;2022-09-09T11:17:20;2.27;;;1.07;;
15938;SDS011;8068;51.322;9.450;2022-09-09T11:19:48;3.57;;;1.40;;
15938;SDS011;8068;51.322;9.450;2022-09-09T11:27:26;2.67;;;1.00;;
15938;SDS011;8068;51.322;9.450;2022-09-09T11:30:19;4.33;;;1.20;;
15938;SDS011;8068;51.322;9.450;2022-09-09T11:33:08;7.33;;;1.13;;
15938;SDS011;8068;51.322;9.450;2022-09-09T11:38:27;4.03;;;1.07;;
15938;SDS011;8068;51.322;9.450;2022-09-09T11:40:58;1.90;;;0.83;;
15938;SDS011;8068;51.322;9.450;2022-09-09T11:43:27;3.63;;;1.33;;
15938;SDS011;8068;51.322;9.450;2022-09-09T11:45:55;2.40;;;1.10;;
15938;SDS011;8068;51.322;9.450;2022-09-09T11:56:27;3.93;;;0.90;;
15938;SDS011;8068;51.322;9.450;2022-09-09T12:01:29;4.83;;;1.30;;
15938;SDS011;8068;51.322;9.450;2022-09-09T12:04:09;6.30;;;1.60;;
15938;SDS011;8068;51.322;9.450;2022-09-09T12:06:51;2.77;;;1.27;;
15938;SDS011;8068;51.322;9.450;2022-09-09T12:11:51;7.27;;;1.17;;
15938;SDS011;8068;51.322;9.450;2022-09-09T12:14:19;3.47;;;1.60;;
15938;SDS011;8068;51.322;9.450;2022-09-09T12:16:46;6.90;;;1.50;;
15938;SDS011;8068;51.322;9.450;2022-09-09T12:19:18;3.33;;;1.30;;
15938;SDS011;8068;51.322;9.450;2022-09-09T12:21:58;4.80;;;1.33;;
15938;SDS011;8068;51.322;9.450;2022-09-09T12:24:55;4.33;;;1.43;;
15938;SDS011;8068;51.322;9.450;2022-09-09T12:30:22;2.87;;;1.03;;
15938;SDS011;8068;51.322;9.450;2022-09-09T12:33:00;3.33;;;1.37;;
15938;SDS011;8068;51.322;9.450;2022-09-09T12:35:27;3.80;;;1.40;;
15938;SDS011;8068;51.322;9.450;2022-09-09T12:37:55;9.13;;;0.97;;
15938;SDS011;8068;51.322;9.450;2022-09-09T12:42:50;3.80;;;1.20;;
15938;SDS011;8068;51.322;9.450;2022-09-09T12:47:46;1.83;;;0.80;;
15938;SDS011;8068;51.322;9.450;2022-09-09T12:50:20;3.37;;;0.60;;
15938;SDS011;8068;51.322;9.450;2022-09-09T12:52:48;3.90;;;0.80;;
15938;SDS011;8068;51.322;9.450;2022-09-09T12:55:16;1.87;;;0.73;;
15938;SDS011;8068;51.322;9.450;2022-09-09T12:57:44;5.33;;;0.70;;
15938;SDS011;8068;51.322;9.450;2022-09-09T13:00:15;1.73;;;0.90;;
15938;SDS011;8068;51.322;9.450;2022-09-09T13:02:47;3.33;;;0.70;;
15938;SDS011;8068;51.322;9.450;2022-09-09T13:05:25;1.23;;;0.40;;
15938;SDS011;8068;51.322;9.450;2022-09-09T13:08:14;2.07;;;0.50;;
15938;SDS011;8068;51.322;9.450;2022-09-09T13:10:44;1.37;;;0.40;;
15938;SDS011;8068;51.322;9.450;2022-09-09T13:15:56;1.50;;;0.50;;
15938;SDS011;8068;51.322;9.450;2022-09-09T13:18:23;2.00;;;0.47;;
15938;SDS011;8068;51.322;9.450;2022-09-09T13:20:51;2.23;;;0.50;;
15938;SDS011;8068;51.322;9.450;2022-09-09T13:23:18;1.50;;;0.60;;
15938;SDS011;8068;51.322;9.450;2022-09-09T13:25:58;1.83;;;0.53;;
15938;SDS011;8068;51.322;9.450;2022-09-09T13:28:26;1.93;;;0.60;;
15938;SDS011;8068;51.322;9.450;2022-09-09T13:31:03;4.33;;;0.80;;
15938;SDS011;8068;51.322;9.450;2022-09-09T13:33:36;1.40;;;0.50;;
15938;SDS011;8068;51.322;9.450;2022-09-09T13:38:31;3.30;;;0.90;;
15938;SDS011;8068;51.322;9.450;2022-09-09T13:41:00;2.17;;;0.77;;
15938;SDS011;8068;51.322;9.450;2022-09-09T13:43:35;4.40;;;0.70;;
15938;SDS011;8068;51.322;9.450;2022-09-09T13:46:04;2.57;;;1.00;;
15938;SDS011;8068;51.322;9.450;2022-09-09T13:48:53;2.50;;;0.93;;
15938;SDS011;8068;51.322;9.450;2022-09-09T13:51:21;1.70;;;0.80;;
15938;SDS011;8068;51.322;9.450;2022-09-09T13:54:03;2.60;;;1.23;;
15938;SDS011;8068;51.322;9.450;2022-09-09T13:56:34;5.60;;;0.93;;
15938;SDS011;8068;51.322;9.450;2022-09-09T13:59:01;1.80;;;0.60;;
15938;SDS011;8068;51.322;9.450;2022-09-09T14:01:28;2.07;;;0.70;;
15938;SDS011;8068;51.322;9.450;2022-09-09T14:03:55;2.03;;;0.80;;
15938;SDS011;8068;51.322;9.450;2022-09-09T14:06:21;3.80;;;0.60;;
15938;SDS011;8068;51.322;9.450;2022-09-09T14:08:48;4.17;;;0.90;;
15938;SDS011;8068;51.322;9.450;2022-09-09T14:11:15;2.73;;;0.80;;
15938;SDS011;8068;51.322;9.450;2022-09-09T14:13:41;7.47;;;1.07;;
15938;SDS011;8068;51.322;9.450;2022-09-09T14:16:07;2.83;;;0.80;;
15938;SDS011;8068;51.322;9.450;2022-09-09T14:18:33;3.57;;;1.10;;
15938;SDS011;8068;51.322;9.450;2022-09-09T14:20:59;6.93;;;0.87;;
15938;SDS011;8068;51.322;9.450;2022-09-09T14:23:25;2.97;;;1.00;;
15938;SDS011;8068;51.322;9.450;2022-09-09T14:25:51;2.60;;;0.70;;
15938;SDS011;8068;51.322;9.450;2022-09-09T14:28:17;2.33;;;1.27;;
15938;SDS011;8068;51.322;9.450;2022-09-09T14:30:51;2.63;;;1.00;;
15938;SDS011;8068;51.322;9.450;2022-09-09T14:33:16;1.40;;;0.60;;
15938;SDS011;8068;51.322;9.450;2022-09-09T14:35:42;5.83;;;1.60;;
15938;SDS011;8068;51.322;9.450;2022-09-09T14:38:09;5.80;;;1.00;;
15938;SDS011;8068;51.322;9.450;2022-09-09T14:40:35;5.10;;;0.77;;
15938;SDS011;8068;51.322;9.450;2022-09-09T14:43:02;1.50;;;0.80;;
15938;SDS011;8068;51.322;9.450;2022-09-09T14:45:28;3.50;;;0.80;;
15938;SDS011;8068;51.322;9.450;2022-09-09T14:47:55;3.03;;;0.80;;
15938;SDS011;8068;51.322;9.450;2022-09-09T14:50:21;2.93;;;1.10;;
15938;SDS011;8068;51.322;9.450;2022-09-09T14:52:48;3.37;;;1.33;;
15938;SDS011;8068;51.322;9.450;2022-09-09T14:55:14;3.63;;;1.10;;
15938;SDS011;8068;51.322;9.450;2022-09-09T14:57:41;2.23;;;1.47;;
15938;SDS011;8068;51.322;9.450;2022-09-09T15:00:07;4.93;;;1.27;;
15938;SDS011;8068;51.322;9.450;2022-09-09T15:02:34;2.70;;;0.93;;
15938;SDS011;8068;51.322;9.450;2022-09-09T15:05:00;2.57;;;0.73;;
15938;SDS011;8068;51.322;9.450;2022-09-09T15:07:26;3.60;;;0.70;;
15938;SDS011;8068;51.322;9.450;2022-09-09T15:09:54;2.40;;;1.10;;
15938;SDS011;8068;51.322;9.450;2022-09-09T15:12:20;2.10;;;0.70;;
15938;SDS011;8068;51.322;9.450;2022-09-09T15:14:46;3.50;;;1.03;;
15938;SDS011;8068;51.322;9.450;2022-09-09T15:17:13;1.50;;;0.90;;
15938;SDS011;8068;51.322;9.450;2022-09-09T15:19:39;1.20;;;0.70;;
15938;SDS011;8068;51.322;9.450;2022-09-09T15:22:05;2.93;;;0.90;;
15938;SDS011;8068;51.322;9.450;2022-09-09T15:24:31;2.70;;;0.90;;
15938;SDS011;8068;51.322;9.450;2022-09-09T15:26:58;3.23;;;0.73;;
15938;SDS011;8068;51.322;9.450;2022-09-09T15:29:24;4.00;;;0.90;;
15938;SDS011;8068;51.322;9.450;2022-09-09T15:31:50;2.57;;;0.90;;
15938;SDS011;8068;51.322;9.450;2022-09-09T15:34:16;5.33;;;0.87;;
15938;SDS011;8068;51.322;9.450;2022-09-09T15:36:43;4.73;;;0.80;;
15938;SDS011;8068;51.322;9.450;2022-09-09T15:39:12;2.13;;;1.07;;
15938;SDS011;8068;51.322;9.450;2022-09-09T15:41:41;2.20;;;0.90;;
15938;SDS011;8068;51.322;9.450;2022-09-09T15:44:08;2.63;;;0.90;;
15938;SDS011;8068;51.322;9.450;2022-09-09T15:46:37;1.70;;;1.00;;
15938;SDS011;8068;51.322;9.450;2022-09-09T15:49:09;1.97;;;1.07;;
15938;SDS011;8068;51.322;9.450;2022-09-09T15:51:37;4.33;;;1.03;;
15938;SDS011;8068;51.322;9.450;2022-09-09T15:54:11;4.03;;;0.97;;
15938;SDS011;8068;51.322;9.450;2022-09-09T15:56:38;3.80;;;1.23;;
15938;SDS011;8068;51.322;9.450;2022-09-09T15:59:04;1.67;;;0.70;;
15938;SDS011;8068;51.322;9.450;2022-09-09T16:01:30;3.43;;;1.00;;
15938;SDS011;8068;51.322;9.450;2022-09-09T16:03:57;2.63;;;0.97;;
15938;SDS011;8068;51.322;9.450;2022-09-09T16:06:24;5.90;;;0.90;;
15938;SDS011;8068;51.322;9.450;2022-09-09T16:08:52;5.03;;;0.90;;
15938;SDS011;8068;51.322;9.450;2022-09-09T16:11:19;2.70;;;0.87;;
15938;SDS011;8068;51.322;9.450;2022-09-09T16:13:56;3.33;;;0.90;;
15938;SDS011;8068;51.322;9.450;2022-09-09T16:16:25;2.37;;;1.10;;
15938;SDS011;8068;51.322;9.450;2022-09-09T16:18:54;3.40;;;1.00;;
15938;SDS011;8068;51.322;9.450;2022-09-09T16:23:50;3.00;;;1.20;;
15938;SDS011;8068;51.322;9.450;2022-09-09T16:26:17;3.77;;;1.03;;
15938;SDS011;8068;51.322;9.450;2022-09-09T16:28:43;4.30;;;1.00;;
15938;SDS011;8068;51.322;9.450;2022-09-09T16:31:22;3.40;;;1.10;;
15938;SDS011;8068;51.322;9.450;2022-09-09T16:33:49;3.87;;;1.00;;
15938;SDS011;8068;51.322;9.450;2022-09-09T16:36:17;4.80;;;1.30;;
15938;SDS011;8068;51.322;9.450;2022-09-09T16:38:44;4.13;;;1.10;;
15938;SDS011;8068;51.322;9.450;2022-09-09T16:41:11;3.40;;;1.00;;
15938;SDS011;8068;51.322;9.450;2022-09-09T16:43:37;2.00;;;1.10;;
15938;SDS011;8068;51.322;9.450;2022-09-09T16:46:11;3.87;;;1.07;;
15938;SDS011;8068;51.322;9.450;2022-09-09T16:48:42;2.70;;;1.00;;
15938;SDS011;8068;51.322;9.450;2022-09-09T16:51:13;2.90;;;0.80;;
15938;SDS011;8068;51.322;9.450;2022-09-09T16:53:41;2.90;;;0.70;;
15938;SDS011;8068;51.322;9.450;2022-09-09T16:56:15;2.17;;;0.77;;
15938;SDS011;8068;51.322;9.450;2022-09-09T16:58:42;2.00;;;0.90;;
15938;SDS011;8068;51.322;9.450;2022-09-09T17:01:10;1.70;;;0.70;;
15938;SDS011;8068;51.322;9.450;2022-09-09T17:03:40;5.20;;;0.90;;
15938;SDS011;8068;51.322;9.450;2022-09-09T17:06:09;4.13;;;0.80;;
15938;SDS011;8068;51.322;9.450;2022-09-09T17:08:37;2.67;;;0.80;;
15938;SDS011;8068;51.322;9.450;2022-09-09T17:11:11;2.70;;;0.70;;
15938;SDS011;8068;51.322;9.450;2022-09-09T17:13:39;3.00;;;1.00;;
15938;SDS011;8068;51.322;9.450;2022-09-09T17:16:08;9.63;;;0.77;;
15938;SDS011;8068;51.322;9.450;2022-09-09T17:18:35;2.93;;;0.70;;
15938;SDS011;8068;51.322;9.450;2022-09-09T17:21:02;2.00;;;0.70;;
15938;SDS011;8068;51.322;9.450;2022-09-09T17:23:39;2.13;;;0.80;;
15938;SDS011;8068;51.322;9.450;2022-09-09T17:26:06;1.60;;;0.83;;
15938;SDS011;8068;51.322;9.450;2022-09-09T17:28:35;4.13;;;0.70;;
15938;SDS011;8068;51.322;9.450;2022-09-09T17:31:06;1.50;;;0.60;;
15938;SDS011;8068;51.322;9.450;2022-09-09T17:33:33;1.80;;;0.70;;
15938;SDS011;8068;51.322;9.450;2022-09-09T17:36:02;2.50;;;0.60;;
15938;SDS011;8068;51.322;9.450;2022-09-09T17:38:36;2.30;;;0.70;;